Time;durP1;ratioP1;P1;durP2;ratioP2;P2;SDS_P1;SDS_P2;PMS_P1;PMS_P2;Temp;Humidity;BMP_temperature;BMP_pressure;BME280_temperature;BME280_humidity;BME280_pressure;Samples;Min_cycle;Max_cycle;Signal;HPM_P1;HPM_P2
2020/12/18 00:00:39;;;;;;;4.63;2.58;;;9.30;99.90;;;;;;2123163;27;20512;-76
2020/12/18 00:01:40;;;;;;;5.50;2.92;;;9.20;99.90;;;;;;2122898;27;20053;-77
2020/12/18 00:02:41;;;;;;;6.75;2.92;;;9.30;99.90;;;;;;2123216;27;20021;-75
2020/12/18 00:03:41;;;;;;;8.30;2.90;;;9.20;99.90;;;;;;2123352;27;20019;-76
2020/12/18 00:04:42;;;;;;;4.18;2.50;;;9.20;99.90;;;;;;2114073;28;20283;-76
2020/12/18 00:05:43;;;;;;;7.47;3.08;;;9.20;99.90;;;;;;2105601;28;20035;-78
2020/12/18 00:06:43;;;;;;;5.90;2.90;;;9.20;99.90;;;;;;2113939;28;20015;-78
2020/12/18 00:07:44;;;;;;;5.75;2.33;;;9.20;99.90;;;;;;2122657;27;20023;-75
2020/12/18 00:08:44;;;;;;;8.35;2.95;;;9.20;99.90;;;;;;2113935;28;20165;-77
2020/12/18 00:09:45;;;;;;;9.02;2.92;;;9.20;99.90;;;;;;2114024;28;20051;-79
2020/12/18 00:10:46;;;;;;;7.60;2.75;;;9.20;99.90;;;;;;2114072;28;20066;-75
2020/12/18 00:11:46;;;;;;;6.60;2.60;;;9.20;99.90;;;;;;2113547;28;20028;-79
2020/12/18 00:12:47;;;;;;;9.02;2.75;;;9.20;99.90;;;;;;2122539;27;20027;-78
2020/12/18 00:13:48;;;;;;;8.57;3.00;;;9.20;99.90;;;;;;2114239;28;20080;-77
2020/12/18 00:14:48;;;;;;;3.67;2.65;;;9.20;99.90;;;;;;2113882;28;20038;-78
2020/12/18 00:15:51;;;;;;;4.63;2.60;;;9.20;99.90;;;;;;2123343;27;20073;-77
2020/12/18 00:16:51;;;;;;;5.25;2.28;;;9.20;99.90;;;;;;2123109;27;20459;-78
2020/12/18 00:17:52;;;;;;;3.90;2.30;;;9.20;99.90;;;;;;2123134;27;20102;-78
2020/12/18 00:18:53;;;;;;;4.03;2.35;;;9.20;99.90;;;;;;2122956;27;20027;-78
2020/12/18 00:19:54;;;;;;;6.60;2.38;;;9.30;99.90;;;;;;2123446;27;20046;-78
2020/12/18 00:20:54;;;;;;;4.95;2.67;;;9.30;99.90;;;;;;2113724;28;20024;-79
2020/12/18 00:21:56;;;;;;;6.10;2.30;;;9.30;99.90;;;;;;2105135;28;20031;-76
2020/12/18 00:22:56;;;;;;;7.30;2.03;;;9.30;99.90;;;;;;2113877;28;20030;-77
2020/12/18 00:23:57;;;;;;;3.72;2.20;;;9.30;99.90;;;;;;2123257;27;20046;-80
2020/12/18 00:24:58;;;;;;;9.38;3.20;;;9.30;99.90;;;;;;2123133;27;20413;-76
2020/12/18 00:25:58;;;;;;;8.23;2.67;;;9.30;99.90;;;;;;2123339;27;20019;-76
2020/12/18 00:26:59;;;;;;;5.82;3.00;;;9.30;99.90;;;;;;2122945;27;20344;-77
2020/12/18 00:27:59;;;;;;;6.03;2.83;;;9.30;99.90;;;;;;2123017;27;20019;-77
2020/12/18 00:29:00;;;;;;;5.70;2.67;;;9.30;99.90;;;;;;2123042;27;20027;-77
2020/12/18 00:30:00;;;;;;;6.20;2.72;;;9.30;99.90;;;;;;2123074;27;20027;-77
2020/12/18 00:31:01;;;;;;;4.97;2.22;;;9.30;99.90;;;;;;2122266;27;20027;-78
2020/12/18 00:32:05;;;;;;;4.03;2.60;;;9.30;99.90;;;;;;2113520;28;20494;-76
2020/12/18 00:33:06;;;;;;;5.63;2.45;;;9.30;99.90;;;;;;2114441;27;20068;-77
2020/12/18 00:34:06;;;;;;;5.20;2.33;;;9.30;99.90;;;;;;2122856;27;20076;-78
2020/12/18 00:35:10;;;;;;;6.28;2.38;;;9.30;99.90;;;;;;2123076;27;20072;-78
2020/12/18 00:36:12;;;;;;;5.43;2.60;;;9.40;99.90;;;;;;2113869;28;20020;-78
2020/12/18 00:37:12;;;;;;;8.25;2.50;;;9.30;99.90;;;;;;2113901;28;20637;-75
2020/12/18 00:38:13;;;;;;;8.52;2.70;;;9.30;99.90;;;;;;2113904;28;20027;-79
2020/12/18 00:39:13;;;;;;;5.82;2.15;;;9.40;99.90;;;;;;2113937;28;20031;-75
2020/12/18 00:40:14;;;;;;;5.38;2.20;;;9.40;99.90;;;;;;2122823;27;20027;-77
2020/12/18 00:41:15;;;;;;;4.90;3.03;;;9.30;99.90;;;;;;2122973;27;20030;-77
2020/12/18 00:42:15;;;;;;;5.78;2.28;;;9.40;99.90;;;;;;2113545;28;20016;-79
2020/12/18 00:43:16;;;;;;;13.18;2.40;;;9.40;99.90;;;;;;2113823;28;20451;-78
2020/12/18 00:44:17;;;;;;;5.05;2.60;;;9.40;99.90;;;;;;2122945;27;20466;-77
2020/12/18 00:45:17;;;;;;;6.82;2.50;;;9.40;99.90;;;;;;2122975;27;20023;-77
2020/12/18 00:46:18;;;;;;;9.13;2.65;;;9.40;99.90;;;;;;2113567;28;20538;-77
2020/12/18 00:47:19;;;;;;;8.10;2.65;;;9.40;99.90;;;;;;2113837;28;20051;-77
2020/12/18 00:48:19;;;;;;;5.05;2.33;;;9.40;99.90;;;;;;2114075;28;20059;-77
2020/12/18 00:49:20;;;;;;;7.18;2.50;;;9.40;99.90;;;;;;2113790;28;20027;-77
2020/12/18 00:50:20;;;;;;;8.70;2.75;;;9.40;99.90;;;;;;2122243;27;20019;-75
2020/12/18 00:51:21;;;;;;;4.28;2.10;;;9.40;99.90;;;;;;2122289;27;20034;-76
2020/12/18 00:52:24;;;;;;;3.45;1.95;;;9.40;99.90;;;;;;2122884;27;20385;-76
2020/12/18 00:53:25;;;;;;;5.38;2.22;;;9.40;99.90;;;;;;2122988;27;20585;-76
2020/12/18 00:54:25;;;;;;;6.38;2.33;;;9.40;99.90;;;;;;2113868;28;20027;-76
2020/12/18 00:55:26;;;;;;;4.00;2.55;;;9.40;99.90;;;;;;2113748;28;20028;-77
2020/12/18 00:56:26;;;;;;;8.05;2.33;;;9.40;99.90;;;;;;2113555;28;20055;-77
2020/12/18 00:57:27;;;;;;;4.88;2.50;;;9.40;99.90;;;;;;2105314;28;20287;-77
2020/12/18 00:58:27;;;;;;;5.18;2.08;;;9.40;99.90;;;;;;2113550;28;20031;-79
2020/12/18 00:59:28;;;;;;;6.90;2.50;;;9.40;99.90;;;;;;2122805;27;20019;-78
2020/12/18 01:00:28;;;;;;;5.85;2.30;;;9.40;99.90;;;;;;2122932;27;20035;-77
2020/12/18 01:01:29;;;;;;;7.50;2.50;;;9.40;99.90;;;;;;2122425;27;20023;-78
2020/12/18 01:02:30;;;;;;;8.05;2.78;;;9.40;99.90;;;;;;2122488;27;20016;-78
2020/12/18 01:03:30;;;;;;;6.70;2.20;;;9.40;99.90;;;;;;2122926;27;20023;-77
2020/12/18 01:04:31;;;;;;;6.57;2.15;;;9.40;99.90;;;;;;2122772;27;20065;-78
2020/12/18 01:05:31;;;;;;;4.38;2.20;;;9.40;99.90;;;;;;2113609;28;20015;-78
2020/12/18 01:06:32;;;;;;;6.50;2.75;;;9.40;99.90;;;;;;2105326;28;20043;-75
2020/12/18 01:07:32;;;;;;;4.63;2.53;;;9.40;99.90;;;;;;2113657;28;20384;-76
2020/12/18 01:08:33;;;;;;;5.20;2.70;;;9.40;99.90;;;;;;2113584;28;20581;-77
2020/12/18 01:09:34;;;;;;;4.53;1.90;;;9.50;99.90;;;;;;2113739;28;20441;-76
2020/12/18 01:10:34;;;;;;;3.45;2.35;;;9.40;99.90;;;;;;2122444;27;20095;-79
2020/12/18 01:11:38;;;;;;;6.68;2.20;;;9.40;99.90;;;;;;2122164;27;20250;-76
2020/12/18 01:12:39;;;;;;;4.78;2.08;;;9.50;99.90;;;;;;2122815;27;20291;-75
2020/12/18 01:13:39;;;;;;;5.13;2.40;;;9.50;99.90;;;;;;2113449;28;20367;-77
2020/12/18 01:14:40;;;;;;;5.13;2.60;;;9.50;99.90;;;;;;2105146;28;20106;-77
2020/12/18 01:15:41;;;;;;;5.65;2.55;;;9.50;99.90;;;;;;2113590;28;20399;-77
2020/12/18 01:16:41;;;;;;;4.97;2.42;;;9.50;99.90;;;;;;2122909;27;20355;-77
2020/12/18 01:17:42;;;;;;;5.32;2.47;;;9.50;99.90;;;;;;2122501;27;20024;-78
2020/12/18 01:18:43;;;;;;;4.65;2.20;;;9.50;99.90;;;;;;2122642;27;20023;-77
2020/12/18 01:19:43;;;;;;;5.63;2.35;;;9.50;99.90;;;;;;2113419;28;20070;-76
2020/12/18 01:20:44;;;;;;;4.72;2.38;;;9.50;99.90;;;;;;2113645;28;20034;-78
2020/12/18 01:21:46;;;;;;;8.13;2.30;;;9.50;99.90;;;;;;2121986;27;20029;-77
2020/12/18 01:22:46;;;;;;;7.32;2.40;;;9.50;99.90;;;;;;2122779;27;20019;-77
2020/12/18 01:23:47;;;;;;;3.17;1.92;;;9.50;99.90;;;;;;2113315;28;20026;-77
2020/12/18 01:24:47;;;;;;;5.53;2.08;;;9.50;99.90;;;;;;2113539;28;20015;-77
2020/12/18 01:25:48;;;;;;;10.35;3.00;;;9.50;99.90;;;;;;2113553;28;20356;-76
2020/12/18 01:26:48;;;;;;;8.60;2.30;;;9.50;99.90;;;;;;2104614;28;20043;-78
2020/12/18 01:27:49;;;;;;;5.72;2.17;;;9.50;99.90;;;;;;2112927;28;20051;-77
2020/12/18 01:28:50;;;;;;;7.22;3.08;;;9.50;99.90;;;;;;2122187;27;20046;-77
2020/12/18 01:29:50;;;;;;;5.32;2.20;;;9.50;99.90;;;;;;2121945;27;20019;-77
2020/12/18 01:30:51;;;;;;;7.30;2.53;;;9.40;99.90;;;;;;2121956;27;20459;-77
2020/12/18 01:31:52;;;;;;;5.68;2.40;;;9.50;99.90;;;;;;2113077;28;20028;-76
2020/12/18 01:32:52;;;;;;;8.23;2.90;;;9.50;99.90;;;;;;2105323;28;20027;-77
2020/12/18 01:33:53;;;;;;;4.28;2.75;;;9.40;99.90;;;;;;2113508;28;20019;-76
2020/12/18 01:34:53;;;;;;;5.63;2.15;;;9.40;99.90;;;;;;2113451;28;20046;-76
2020/12/18 01:35:54;;;;;;;4.60;2.40;;;9.40;99.90;;;;;;2113519;28;20028;-76
2020/12/18 01:36:54;;;;;;;6.43;2.15;;;9.40;99.90;;;;;;2122558;27;20348;-76
2020/12/18 01:37:55;;;;;;;5.28;1.98;;;9.50;99.90;;;;;;2113112;28;20030;-78
2020/12/18 01:38:56;;;;;;;6.15;2.90;;;9.50;99.90;;;;;;2113378;28;20019;-76
2020/12/18 01:39:57;;;;;;;9.82;2.47;;;9.50;99.90;;;;;;2113354;28;20042;-77
2020/12/18 01:40:57;;;;;;;5.32;2.20;;;9.40;99.90;;;;;;2122454;27;20062;-77
2020/12/18 01:41:58;;;;;;;12.25;2.50;;;9.50;99.90;;;;;;2112814;28;20023;-78
2020/12/18 01:43:00;;;;;;;5.30;2.35;;;9.40;99.90;;;;;;2113306;28;20024;-77
2020/12/18 01:44:01;;;;;;;5.93;2.38;;;9.40;99.90;;;;;;2113433;28;20038;-75
2020/12/18 01:45:02;;;;;;;7.93;2.10;;;9.40;99.90;;;;;;2113602;28;20468;-77
2020/12/18 01:46:09;;;;;;;5.75;2.05;;;9.40;99.90;;;;;;2122456;27;20023;-78
2020/12/18 01:47:35;;;;;;;3.75;2.05;;;9.40;99.90;;;;;;2122175;27;20090;-79
2020/12/18 01:48:38;;;;;;;6.68;1.95;;;9.40;99.90;;;;;;2122275;27;20493;-77
2020/12/18 01:49:39;;;;;;;8.32;2.45;;;9.40;99.90;;;;;;2113207;28;20036;-75
2020/12/18 01:50:40;;;;;;;5.32;2.33;;;9.40;99.90;;;;;;2113276;28;20023;-77
2020/12/18 01:51:40;;;;;;;7.38;2.13;;;9.40;99.90;;;;;;2121941;27;20043;-78
2020/12/18 01:52:43;;;;;;;5.00;2.10;;;9.40;99.90;;;;;;2122445;27;20019;-76
2020/12/18 01:53:44;;;;;;;9.95;2.28;;;9.40;99.90;;;;;;2113091;28;20119;-78
2020/12/18 01:54:45;;;;;;;4.72;1.70;;;9.40;99.90;;;;;;2113344;28;20388;-78
2020/12/18 01:55:47;;;;;;;4.53;2.22;;;9.40;99.90;;;;;;2122378;27;20023;-76
2020/12/18 01:56:48;;;;;;;8.13;2.10;;;9.40;99.90;;;;;;2113187;28;20023;-77
2020/12/18 01:57:51;;;;;;;4.40;2.10;;;9.40;99.90;;;;;;2113120;28;20406;-75
2020/12/18 01:58:53;;;;;;;3.88;2.33;;;9.40;99.90;;;;;;2112952;28;20026;-77
2020/12/18 01:59:53;;;;;;;6.28;2.42;;;9.40;99.90;;;;;;2104892;28;20115;-75
2020/12/18 02:00:57;;;;;;;7.47;2.40;;;9.40;99.90;;;;;;2113107;28;20034;-75
2020/12/18 02:01:58;;;;;;;6.07;2.00;;;9.40;99.90;;;;;;2113180;28;20008;-77
2020/12/18 02:02:58;;;;;;;4.80;2.55;;;9.30;99.90;;;;;;2113184;28;20020;-77
2020/12/18 02:03:59;;;;;;;8.40;2.20;;;9.40;99.90;;;;;;2113206;28;20052;-77
2020/12/18 02:05:00;;;;;;;5.75;2.53;;;9.40;99.90;;;;;;2121960;27;20019;-78
2020/12/18 02:06:10;;;;;;;6.00;1.85;;;9.30;99.90;;;;;;2122548;27;20015;-78
2020/12/18 02:07:15;;;;;;;7.00;2.00;;;9.40;99.90;;;;;;2113088;28;20435;-76
2020/12/18 02:08:18;;;;;;;4.60;2.13;;;9.30;99.90;;;;;;2114084;27;20210;-76
2020/12/18 02:09:18;;;;;;;5.65;2.17;;;9.30;99.90;;;;;;2122124;27;20248;-76
2020/12/18 02:10:19;;;;;;;4.03;2.00;;;9.30;99.90;;;;;;2122124;27;20023;-77
2020/12/18 02:11:23;;;;;;;3.95;2.00;;;9.30;99.90;;;;;;2122209;27;20084;-77
2020/12/18 02:12:24;;;;;;;4.57;1.50;;;9.30;99.90;;;;;;2113124;28;20035;-77
2020/12/18 02:13:25;;;;;;;8.43;2.17;;;9.30;99.90;;;;;;2104635;28;20028;-78
2020/12/18 02:14:26;;;;;;;3.03;1.90;;;9.30;99.90;;;;;;2104724;28;20468;-79
2020/12/18 02:15:28;;;;;;;8.25;2.35;;;9.30;99.90;;;;;;2112878;28;20068;-79
2020/12/18 02:16:31;;;;;;;4.55;1.80;;;9.30;99.90;;;;;;2122169;27;20100;-77
2020/12/18 02:17:31;;;;;;;6.60;1.90;;;9.30;99.90;;;;;;2121919;27;20027;-78
2020/12/18 02:18:33;;;;;;;7.53;2.03;;;9.30;99.90;;;;;;2122247;27;20050;-76
2020/12/18 02:19:36;;;;;;;3.75;1.63;;;9.30;99.90;;;;;;2122085;27;20429;-77
2020/12/18 02:20:36;;;;;;;6.63;2.35;;;9.20;99.90;;;;;;2122356;27;20022;-76
2020/12/18 02:21:37;;;;;;;4.57;2.17;;;9.20;99.90;;;;;;2120853;27;20027;-77
2020/12/18 02:22:38;;;;;;;5.07;1.88;;;9.30;99.90;;;;;;2113334;28;20046;-77
2020/12/18 02:23:42;;;;;;;7.13;2.13;;;9.20;99.90;;;;;;2104660;28;20407;-80
2020/12/18 02:24:50;;;;;;;5.95;1.85;;;9.20;99.90;;;;;;2113522;27;20095;-78
2020/12/18 02:26:10;;;;;;;3.33;1.70;;;9.30;99.90;;;;;;2122225;27;20043;-77
2020/12/18 02:27:11;;;;;;;4.40;1.70;;;9.20;99.90;;;;;;2121995;27;20015;-77
2020/12/18 02:28:12;;;;;;;8.55;2.42;;;9.20;99.90;;;;;;2122441;27;20030;-76
2020/12/18 02:29:13;;;;;;;4.00;2.08;;;9.20;99.90;;;;;;2122097;27;20023;-75
2020/12/18 02:30:15;;;;;;;9.75;2.80;;;9.20;99.90;;;;;;2112906;28;20130;-76
2020/12/18 02:31:16;;;;;;;7.80;2.05;;;9.20;99.90;;;;;;2113499;28;20069;-77
2020/12/18 02:32:16;;;;;;;5.22;1.90;;;9.20;99.90;;;;;;2112577;28;20023;-77
2020/12/18 02:33:17;;;;;;;3.72;1.70;;;9.20;99.90;;;;;;2104422;28;20027;-76
2020/12/18 02:34:25;;;;;;;5.47;2.05;;;9.10;99.90;;;;;;2104545;28;20118;-80
2020/12/18 02:35:25;;;;;;;10.68;2.10;;;9.20;99.90;;;;;;2113903;28;20023;-75
2020/12/18 02:36:26;;;;;;;4.30;2.40;;;9.20;99.90;;;;;;2121985;27;20038;-79
2020/12/18 02:37:27;;;;;;;4.75;1.67;;;9.10;99.90;;;;;;2112997;28;20269;-76
2020/12/18 02:38:28;;;;;;;8.18;2.10;;;9.10;99.90;;;;;;2104269;28;20510;-76
2020/12/18 02:39:29;;;;;;;5.85;2.15;;;9.20;99.90;;;;;;2112622;28;20128;-75
2020/12/18 02:40:30;;;;;;;5.55;1.55;;;9.10;99.90;;;;;;2104532;28;20106;-78
2020/12/18 02:41:30;;;;;;;5.10;1.98;;;9.10;99.90;;;;;;2112654;28;20630;-78
2020/12/18 02:42:31;;;;;;;9.43;2.17;;;9.10;99.90;;;;;;2113014;28;20411;-76
2020/12/18 02:43:32;;;;;;;4.70;1.90;;;9.10;99.90;;;;;;2104417;28;20499;-76
2020/12/18 02:44:32;;;;;;;5.18;2.00;;;9.10;99.90;;;;;;2112938;28;20058;-78
2020/12/18 02:45:33;;;;;;;4.72;2.17;;;9.10;99.90;;;;;;2121834;27;20031;-76
2020/12/18 02:46:33;;;;;;;6.63;1.90;;;9.10;99.90;;;;;;2118548;27;20019;-75
2020/12/18 02:47:34;;;;;;;5.25;1.95;;;9.10;99.90;;;;;;2112833;28;20061;-75
2020/12/18 02:48:34;;;;;;;5.07;1.63;;;9.10;99.90;;;;;;2104084;28;20043;-75
2020/12/18 02:49:35;;;;;;;4.82;1.88;;;9.10;99.90;;;;;;2112687;28;20082;-76
2020/12/18 02:50:35;;;;;;;3.70;1.70;;;9.10;99.90;;;;;;2121965;27;20027;-77
2020/12/18 02:51:36;;;;;;;5.72;1.70;;;9.10;99.90;;;;;;2121535;27;20027;-76
2020/12/18 02:52:37;;;;;;;5.00;1.90;;;9.00;99.90;;;;;;2121886;27;20102;-79
2020/12/18 02:53:38;;;;;;;5.88;2.00;;;9.00;99.90;;;;;;2121986;27;20021;-76
2020/12/18 02:54:39;;;;;;;5.60;1.58;;;9.00;99.90;;;;;;2112704;28;20383;-78
2020/12/18 02:55:40;;;;;;;4.22;1.77;;;9.00;99.90;;;;;;2112668;28;20441;-77
2020/12/18 02:56:41;;;;;;;3.55;1.90;;;9.00;99.90;;;;;;2122060;27;20019;-76
2020/12/18 02:57:41;;;;;;;7.35;2.10;;;9.00;99.90;;;;;;2121907;27;20467;-77
2020/12/18 02:58:42;;;;;;;6.13;1.85;;;9.00;99.90;;;;;;2121787;27;20032;-79
2020/12/18 02:59:42;;;;;;;4.13;1.45;;;9.00;99.90;;;;;;2121979;27;20019;-75
2020/12/18 03:00:43;;;;;;;13.05;2.00;;;9.00;99.90;;;;;;2112659;28;20030;-78
2020/12/18 03:01:44;;;;;;;3.90;1.50;;;9.00;99.90;;;;;;2112417;28;20092;-76
2020/12/18 03:02:45;;;;;;;5.00;2.55;;;8.90;99.90;;;;;;2121918;27;20072;-75
2020/12/18 03:03:45;;;;;;;3.15;1.60;;;9.00;99.90;;;;;;2122083;27;20367;-77
2020/12/18 03:04:46;;;;;;;5.05;1.80;;;8.90;99.90;;;;;;2121834;27;20023;-76
2020/12/18 03:05:46;;;;;;;4.60;2.20;;;8.90;99.90;;;;;;2112704;28;20111;-76
2020/12/18 03:06:47;;;;;;;4.93;1.80;;;8.90;99.90;;;;;;2112660;28;20061;-77
2020/12/18 03:07:48;;;;;;;5.60;1.98;;;8.90;99.90;;;;;;2121885;27;20045;-77
2020/12/18 03:08:48;;;;;;;4.85;1.90;;;8.90;99.90;;;;;;2121983;27;20331;-75
2020/12/18 03:09:49;;;;;;;5.63;2.13;;;8.90;99.90;;;;;;2112774;28;20082;-75
2020/12/18 03:10:49;;;;;;;3.45;1.52;;;8.90;99.90;;;;;;2112909;28;20111;-79
2020/12/18 03:11:50;;;;;;;7.57;1.73;;;8.90;99.90;;;;;;2121372;28;20024;-75
2020/12/18 03:12:51;;;;;;;5.05;2.05;;;8.90;99.90;;;;;;2121784;28;20031;-76
2020/12/18 03:13:52;;;;;;;6.10;1.90;;;8.90;99.90;;;;;;2112748;28;20417;-77
2020/12/18 03:14:52;;;;;;;7.65;2.35;;;8.90;99.90;;;;;;2112494;28;20027;-77
2020/12/18 03:15:53;;;;;;;5.35;1.85;;;8.90;99.90;;;;;;2121618;28;20019;-76
2020/12/18 03:16:53;;;;;;;6.63;1.75;;;8.90;99.90;;;;;;2121747;28;20108;-77
2020/12/18 03:17:54;;;;;;;4.70;1.70;;;8.80;99.90;;;;;;2121264;28;20042;-76
2020/12/18 03:18:54;;;;;;;9.73;2.40;;;8.80;99.90;;;;;;2121617;28;20027;-78
2020/12/18 03:19:55;;;;;;;3.70;1.77;;;8.80;99.90;;;;;;2121725;28;20015;-78
2020/12/18 03:20:55;;;;;;;9.43;1.70;;;8.80;99.90;;;;;;2112749;28;20072;-77
2020/12/18 03:21:56;;;;;;;6.45;2.58;;;8.80;99.90;;;;;;2103747;28;20507;-76
2020/12/18 03:22:56;;;;;;;4.55;2.08;;;8.80;99.90;;;;;;2112921;28;20031;-79
2020/12/18 03:23:57;;;;;;;2.85;1.30;;;8.80;99.90;;;;;;2121331;28;20015;-75
2020/12/18 03:24:58;;;;;;;3.63;1.50;;;8.80;99.90;;;;;;2122213;28;20451;-77
2020/12/18 03:25:59;;;;;;;4.85;1.70;;;8.90;99.90;;;;;;2112561;28;20016;-78
2020/12/18 03:27:00;;;;;;;6.25;1.98;;;8.80;99.90;;;;;;2104200;28;20469;-76
2020/12/18 03:28:00;;;;;;;7.80;2.10;;;8.90;99.90;;;;;;2112557;28;20129;-78
2020/12/18 03:29:01;;;;;;;5.60;1.98;;;8.80;99.90;;;;;;2112878;28;20027;-78
2020/12/18 03:30:02;;;;;;;6.90;1.88;;;8.80;99.90;;;;;;2121835;28;20049;-77
2020/12/18 03:31:03;;;;;;;5.85;1.77;;;8.80;99.90;;;;;;2113050;28;20479;-76
2020/12/18 03:32:03;;;;;;;3.55;1.65;;;8.80;99.90;;;;;;2112153;28;20070;-78
2020/12/18 03:33:05;;;;;;;7.70;3.08;;;8.80;99.90;;;;;;2121526;27;20111;-77
2020/12/18 03:34:06;;;;;;;7.60;1.70;;;8.80;99.90;;;;;;2114334;28;20027;-76
2020/12/18 03:35:06;;;;;;;6.70;1.58;;;8.80;99.90;;;;;;2114364;27;20061;-76
2020/12/18 03:36:07;;;;;;;3.45;1.60;;;8.80;99.90;;;;;;2123362;27;20031;-75
2020/12/18 03:37:08;;;;;;;8.02;1.90;;;8.80;99.90;;;;;;2123666;27;20023;-80
2020/12/18 03:38:08;;;;;;;4.88;1.75;;;8.80;99.90;;;;;;2123394;27;20043;-79
2020/12/18 03:39:09;;;;;;;4.25;1.98;;;8.80;99.90;;;;;;2123525;27;20034;-79
2020/12/18 03:40:10;;;;;;;5.78;1.90;;;8.80;99.90;;;;;;2114110;28;20249;-77
2020/12/18 03:41:10;;;;;;;5.70;1.40;;;8.80;99.90;;;;;;2106120;28;20483;-76
2020/12/18 03:42:11;;;;;;;3.88;2.00;;;8.80;99.90;;;;;;2113777;28;20390;-76
2020/12/18 03:43:11;;;;;;;3.03;1.52;;;8.80;99.90;;;;;;2123695;27;20373;-76
2020/12/18 03:44:12;;;;;;;4.45;1.63;;;8.80;99.90;;;;;;2123490;27;20079;-75
2020/12/18 03:45:13;;;;;;;7.57;2.45;;;8.70;99.90;;;;;;2123542;27;20069;-78
2020/12/18 03:46:15;;;;;;;5.57;1.63;;;8.80;99.90;;;;;;2123049;27;20458;-77
2020/12/18 03:47:16;;;;;;;4.65;1.70;;;8.70;99.90;;;;;;2123666;27;20022;-75
2020/12/18 03:48:16;;;;;;;9.48;2.10;;;8.70;99.90;;;;;;2114185;28;20107;-78
2020/12/18 03:49:17;;;;;;;4.03;1.60;;;8.70;99.90;;;;;;2105879;28;20036;-78
2020/12/18 03:50:17;;;;;;;6.10;1.88;;;8.70;99.90;;;;;;2114441;28;20139;-77
2020/12/18 03:51:18;;;;;;;4.07;1.48;;;8.70;99.90;;;;;;2123060;27;20023;-77
2020/12/18 03:52:18;;;;;;;4.75;2.08;;;8.70;99.90;;;;;;2113757;28;20024;-78
2020/12/18 03:53:19;;;;;;;7.90;1.95;;;8.70;99.90;;;;;;2114301;28;20077;-76
2020/12/18 03:54:19;;;;;;;5.70;2.17;;;8.70;99.90;;;;;;2123473;27;20019;-78
2020/12/18 03:55:20;;;;;;;6.95;2.22;;;8.70;99.90;;;;;;2123289;27;20152;-77
2020/12/18 03:56:20;;;;;;;4.93;2.00;;;8.70;99.90;;;;;;2114277;28;20028;-75
2020/12/18 03:57:21;;;;;;;4.53;1.50;;;8.70;99.90;;;;;;2113972;28;20047;-76
2020/12/18 03:58:22;;;;;;;6.03;1.83;;;8.70;99.90;;;;;;2123226;27;20386;-78
2020/12/18 03:59:22;;;;;;;3.70;1.58;;;8.70;99.90;;;;;;2123228;27;20063;-74
2020/12/18 04:00:23;;;;;;;5.10;1.50;;;8.70;99.90;;;;;;2114354;28;20023;-79
2020/12/18 04:01:24;;;;;;;3.83;1.88;;;8.70;99.90;;;;;;2113677;28;20330;-75
2020/12/18 04:02:25;;;;;;;8.02;2.05;;;8.70;99.90;;;;;;2114041;28;20258;-76
2020/12/18 04:03:26;;;;;;;2.78;1.70;;;8.70;99.90;;;;;;2114096;28;20047;-78
2020/12/18 04:04:26;;;;;;;7.97;1.70;;;8.60;99.90;;;;;;2123245;27;20023;-78
2020/12/18 04:05:27;;;;;;;5.40;1.55;;;8.60;99.90;;;;;;2123172;27;20019;-76
2020/12/18 04:06:27;;;;;;;3.47;1.60;;;8.60;99.90;;;;;;2123343;27;20092;-76
2020/12/18 04:07:28;;;;;;;2.60;1.58;;;8.60;99.90;;;;;;2113744;28;20015;-76
2020/12/18 04:08:28;;;;;;;3.38;1.77;;;8.60;99.90;;;;;;2114058;28;20078;-77
2020/12/18 04:09:29;;;;;;;7.15;1.80;;;8.60;99.90;;;;;;2123223;27;20051;-76
2020/12/18 04:10:29;;;;;;;5.18;1.77;;;8.60;99.90;;;;;;2123185;27;20027;-76
2020/12/18 04:11:30;;;;;;;5.07;1.77;;;8.60;99.90;;;;;;2122610;27;20028;-75
2020/12/18 04:12:31;;;;;;;2.92;1.40;;;8.60;99.90;;;;;;2123363;27;20019;-76
2020/12/18 04:13:31;;;;;;;2.53;1.25;;;8.60;99.90;;;;;;2123021;27;20076;-75
2020/12/18 04:14:32;;;;;;;3.47;1.73;;;8.60;99.90;;;;;;2114038;28;20030;-78
2020/12/18 04:15:32;;;;;;;6.07;1.70;;;8.60;99.90;;;;;;2105547;28;20036;-76
2020/12/18 04:16:33;;;;;;;4.63;2.10;;;8.60;99.90;;;;;;2114174;28;20131;-79
2020/12/18 04:17:34;;;;;;;4.10;1.50;;;8.50;99.90;;;;;;2122949;27;20149;-78
2020/12/18 04:18:34;;;;;;;3.72;1.70;;;8.60;99.90;;;;;;2114089;28;20024;-78
2020/12/18 04:19:35;;;;;;;5.75;2.35;;;8.50;99.90;;;;;;2105289;28;20020;-77
2020/12/18 04:20:36;;;;;;;6.32;2.22;;;8.60;99.90;;;;;;2105636;28;20052;-75
2020/12/18 04:21:37;;;;;;;6.18;1.63;;;8.60;99.90;;;;;;2113644;28;20106;-78
2020/12/18 04:22:37;;;;;;;5.32;1.85;;;8.50;99.90;;;;;;2113869;28;20593;-78
2020/12/18 04:23:38;;;;;;;6.70;2.00;;;8.50;99.90;;;;;;2114013;28;20027;-76
2020/12/18 04:24:38;;;;;;;4.68;1.67;;;8.60;99.90;;;;;;2114038;28;20542;-78
2020/12/18 04:25:39;;;;;;;9.45;2.20;;;8.60;99.90;;;;;;2113684;28;20250;-79
2020/12/18 04:26:39;;;;;;;6.80;1.98;;;8.50;99.90;;;;;;2113757;28;20027;-78
2020/12/18 04:27:40;;;;;;;6.75;2.05;;;8.60;99.90;;;;;;2105556;28;20020;-77
2020/12/18 04:28:40;;;;;;;7.75;1.80;;;8.60;99.90;;;;;;2113936;28;20023;-77
2020/12/18 04:29:41;;;;;;;3.40;1.67;;;8.50;99.90;;;;;;2122335;27;20419;-77
2020/12/18 04:30:43;;;;;;;5.65;2.13;;;8.50;99.90;;;;;;2122533;27;20028;-79
2020/12/18 04:31:44;;;;;;;4.50;1.85;;;8.50;99.90;;;;;;2113410;28;20019;-75
2020/12/18 04:32:44;;;;;;;5.85;1.85;;;8.50;99.90;;;;;;2114040;28;20038;-76
2020/12/18 04:33:45;;;;;;;5.38;1.80;;;8.50;99.90;;;;;;2123071;27;20023;-76
2020/12/18 04:34:45;;;;;;;5.50;1.85;;;8.50;99.90;;;;;;2122898;27;20023;-76
2020/12/18 04:35:46;;;;;;;5.43;1.75;;;8.60;99.90;;;;;;2113665;28;20027;-76
2020/12/18 04:36:46;;;;;;;3.25;1.40;;;8.50;99.90;;;;;;2113812;28;20020;-75
2020/12/18 04:37:47;;;;;;;6.78;2.30;;;8.50;99.90;;;;;;2122937;27;20474;-77
2020/12/18 04:38:48;;;;;;;6.00;1.90;;;8.50;99.90;;;;;;2122871;27;20106;-78
2020/12/18 04:39:48;;;;;;;5.05;2.35;;;8.50;99.90;;;;;;2122832;27;20066;-76
2020/12/18 04:40:50;;;;;;;7.88;2.50;;;8.50;99.90;;;;;;2123047;27;20023;-78
2020/12/18 04:41:51;;;;;;;6.97;2.20;;;8.50;99.90;;;;;;2122470;27;20021;-78
2020/12/18 04:42:53;;;;;;;6.00;1.90;;;8.50;99.90;;;;;;2113464;28;20019;-78
2020/12/18 04:43:54;;;;;;;4.57;1.70;;;8.50;99.90;;;;;;2114074;27;20421;-77
2020/12/18 04:44:55;;;;;;;3.75;1.80;;;8.50;99.90;;;;;;2112727;28;20031;-75
2020/12/18 04:45:59;;;;;;;5.70;1.90;;;8.50;99.90;;;;;;2113805;28;20051;-79
2020/12/18 04:47:01;;;;;;;7.03;2.20;;;8.50;99.90;;;;;;2122818;27;20475;-78
2020/12/18 04:48:05;;;;;;;4.38;1.98;;;8.40;99.90;;;;;;2113739;28;20491;-76
2020/12/18 04:49:05;;;;;;;5.95;2.10;;;8.50;99.90;;;;;;2113450;28;20542;-76
2020/12/18 04:50:06;;;;;;;4.13;1.95;;;8.40;99.90;;;;;;2113728;28;20073;-77
2020/12/18 04:51:08;;;;;;;5.53;1.83;;;8.40;99.90;;;;;;2122300;27;20041;-78
2020/12/18 04:52:11;;;;;;;5.65;2.20;;;8.40;99.90;;;;;;2122430;27;20031;-78
2020/12/18 04:53:12;;;;;;;3.50;1.85;;;8.40;99.90;;;;;;2122803;27;20494;-78
2020/12/18 04:54:21;;;;;;;3.78;1.88;;;8.40;99.90;;;;;;2122771;27;20071;-78
2020/12/18 04:55:25;;;;;;;4.30;1.60;;;8.40;99.90;;;;;;2113276;28;20427;-77
2020/12/18 04:56:26;;;;;;;9.20;2.75;;;8.40;99.90;;;;;;2105721;28;20032;-76
2020/12/18 04:57:30;;;;;;;5.88;1.90;;;8.40;99.90;;;;;;2105220;28;20024;-76
2020/12/18 04:58:31;;;;;;;5.30;1.80;;;8.40;99.90;;;;;;2105662;28;20055;-78
2020/12/18 04:59:33;;;;;;;6.97;1.80;;;8.40;99.90;;;;;;2113526;28;20023;-78
2020/12/18 05:00:34;;;;;;;4.60;1.83;;;8.40;99.90;;;;;;2113528;28;20027;-77
2020/12/18 05:01:35;;;;;;;6.03;1.65;;;8.40;99.90;;;;;;2113003;28;20020;-78
2020/12/18 05:02:36;;;;;;;5.85;2.70;;;8.40;99.90;;;;;;2113769;28;20103;-77
2020/12/18 05:03:36;;;;;;;5.57;2.40;;;8.40;99.90;;;;;;2122654;27;20023;-76
2020/12/18 05:04:41;;;;;;;4.32;1.75;;;8.40;99.90;;;;;;2122891;27;20096;-79
2020/12/18 05:05:42;;;;;;;7.65;2.08;;;8.30;99.90;;;;;;2122545;27;20035;-79
2020/12/18 05:06:42;;;;;;;5.70;2.15;;;8.30;99.90;;;;;;2122582;27;20034;-75
2020/12/18 05:07:43;;;;;;;7.32;2.25;;;8.30;99.90;;;;;;2113518;28;20115;-77
2020/12/18 05:08:44;;;;;;;9.70;2.25;;;8.30;99.90;;;;;;2113775;28;20026;-76
2020/12/18 05:09:50;;;;;;;6.57;2.17;;;8.30;99.90;;;;;;2122576;27;20026;-78
2020/12/18 05:10:50;;;;;;;3.85;1.90;;;8.30;99.90;;;;;;2122978;27;20019;-76
2020/12/18 05:11:52;;;;;;;5.55;2.13;;;8.30;99.90;;;;;;2121992;27;20026;-78
2020/12/18 05:12:52;;;;;;;9.38;2.38;;;8.30;99.90;;;;;;2113607;28;20020;-77
2020/12/18 05:13:55;;;;;;;5.35;1.95;;;8.30;99.90;;;;;;2105005;28;20472;-78
2020/12/18 05:14:56;;;;;;;6.72;2.00;;;8.30;99.90;;;;;;2113937;27;20540;-78
2020/12/18 05:15:58;;;;;;;3.95;1.83;;;8.30;99.90;;;;;;2122512;27;20023;-75
2020/12/18 05:17:09;;;;;;;3.85;2.13;;;8.30;99.90;;;;;;2122636;27;20068;-77
2020/12/18 05:18:11;;;;;;;6.75;2.25;;;8.30;99.90;;;;;;2122766;27;20026;-79
2020/12/18 05:19:12;;;;;;;8.77;2.80;;;8.20;99.90;;;;;;2123270;27;20019;-76
2020/12/18 05:20:12;;;;;;;4.13;1.98;;;8.20;99.90;;;;;;2122503;27;20037;-79
2020/12/18 05:21:13;;;;;;;8.20;2.10;;;8.30;99.90;;;;;;2113581;28;20011;-76
2020/12/18 05:22:14;;;;;;;6.15;2.08;;;8.20;99.90;;;;;;2112953;28;20035;-78
2020/12/18 05:23:14;;;;;;;3.17;2.22;;;8.20;99.90;;;;;;2122673;27;20023;-77